Latest Weather Observations for Condobolin Airport

IDN60801

Issued at 8:05 pm EDT Friday 24 October 2014 (issued every 30 minutes, with the page automatically refreshed every 10 minutes)

About weather observations | Map of weather stations | Latest weather observations for NSW | Other Formats
Station Details ID: 050137 Name: CONDOBOLIN AIRPORT AWS Lat: -33.07 Lon: 147.21 Height: 192.6 m
Data from the previous 72 hours. | See also: Recent months at Condobolin Airport
Date/Time
EDT
Temp
°C
App
Temp
°C
Dew
Point
Rel
Hum
%
Delta-T
°C
Wind Press
QNH
hPa
Press
MSL
hPa
Rain
since 9 am
mm
Dir
 
Spd
km/h
Gust
km/h
Spd
kts
Gust
kts
24/08:00pm 31.2 25.3 -0.5 13 15.3 WSW 20 30 11 16 1013.0 1012.7 0.0
24/07:30pm 31.4 26.3 0.7 14 15.1 W 17 22 9 12 1012.6 1012.3 0.0
24/07:00pm 33.1 27.1 1.0 13 16.1 W 22 32 12 17 1012.0 1011.6 0.0
24/06:30pm 33.4 26.3 1.3 13 16.2 WSW 28 41 15 22 1011.7 1011.3 0.0
24/06:00pm 34.0 26.0 0.6 12 16.7 W 32 43 17 23 1011.3 1010.9 0.0
24/05:30pm 34.8 27.5 0.0 11 17.3 W 28 44 15 24 1010.9 1010.5 0.0
24/05:00pm 34.7 26.6 -0.1 11 17.3 WSW 32 37 17 20 1010.9 1010.5 0.0
24/04:30pm 35.4 26.8 -3.8 8 18.4 W 32 46 17 25 1010.6 1010.2 0.0
24/04:04pm 36.1 28.2 -5.1 7 19.0 W 28 46 15 25 1010.3 1009.9 0.0
24/04:00pm 36.2 28.7 -5.0 7 19.1 W 26 39 14 21 1010.3 1009.9 0.0
24/03:30pm 37.7 30.1 -6.0 6 20.1 W 26 39 14 21 1010.3 1009.9 0.0
24/03:00pm 36.9 28.1 -6.5 6 19.8 W 32 46 17 25 1010.7 1010.3 0.0
24/02:42pm 38.1 30.5 -1.9 8 19.7 WNW 28 54 15 29 1010.7 1010.3 0.0
24/02:30pm 38.0 30.5 1.1 10 19.0 WNW 30 41 16 22 1011.1 1010.7 0.0
24/02:07pm 37.2 29.8 1.8 11 18.4 NW 30 54 16 29 1011.4 1011.0 0.0
24/02:00pm 37.3 31.6 3.1 12 18.1 NW 22 35 12 19 1011.7 1011.3 0.0
24/01:30pm 36.3 30.3 3.5 13 17.4 NNW 24 33 13 18 1012.1 1011.7 0.0
24/01:00pm 35.8 29.0 5.1 15 16.7 N 30 44 16 24 1012.5 1012.2 0.0
24/12:45pm 34.8 28.4 5.3 16 16.0 N 28 46 15 25 1012.9 1012.6 0.0
24/12:30pm 34.9 27.8 5.4 16 16.0 NNW 32 43 17 23 1013.1 1012.8 0.0
24/12:06pm 35.2 27.2 5.6 16 16.1 N 37 57 20 31 1013.1 1012.8 0.0
24/12:00pm 34.1 26.1 5.6 17 15.4 N 37 46 20 25 1013.3 1013.0 0.0
24/11:30am 33.1 24.7 5.6 18 14.8 N 39 50 21 27 1013.5 1013.2 0.0
24/11:00am 32.3 23.9 5.7 19 14.3 N 39 54 21 29 1013.9 1013.6 0.0
24/10:30am 31.2 22.4 5.6 20 13.7 N 41 54 22 29 1014.3 1013.9 0.0
24/10:00am 30.6 22.0 6.5 22 13.0 N 41 52 22 28 1014.6 1014.2 0.0
24/09:30am 28.8 20.4 7.4 26 11.6 N 41 54 22 29 1015.0 1014.6 0.0
24/09:00am 27.3 18.7 8.2 30 10.4 NNE 43 52 23 28 1015.1 1014.7 0.2
24/08:30am 26.0 18.3 8.5 33 9.5 NNE 39 52 21 28 1015.3 1014.9 0.2
24/08:00am 25.1 17.8 8.6 35 9.0 NNE 37 52 20 28 1015.4 1015.0 0.2
24/07:30am 24.5 17.6 8.9 37 8.5 NNE 35 48 19 26 1015.5 1015.1 0.2
24/07:00am 23.6 17.3 8.8 39 8.0 NNE 32 41 17 22 1015.2 1014.8 0.2
24/06:30am 23.5 16.2 8.8 39 7.9 NNE 37 48 20 26 1015.1 1014.7 0.2
24/06:04am 23.7 17.3 8.5 38 8.2 NNE 32 50 17 27 1014.9 1014.5 0.2
24/06:00am 23.8 17.2 8.6 38 8.2 NNE 33 50 18 27 1014.8 1014.4 0.2
24/05:30am 24.2 18.2 8.6 37 8.4 N 30 41 16 22 1014.9 1014.5 0.2
24/05:00am 23.7 17.3 8.5 38 8.2 NNE 32 39 17 21 1014.6 1014.2 0.2
24/04:30am 24.2 18.9 8.6 37 8.4 NNE 26 37 14 20 1014.4 1014.0 0.2
24/04:00am 23.0 18.0 9.4 42 7.4 NNE 26 33 14 18 1014.4 1014.0 0.2
24/03:30am 23.6 18.9 9.2 40 7.8 NE 24 35 13 19 1014.9 1014.5 0.2
24/03:00am 23.1 19.4 9.5 42 7.4 NE 19 24 10 13 1015.8 1015.4 0.2
24/02:30am 22.5 19.4 10.3 46 6.7 E 17 22 9 12 1015.6 1015.2 0.2
24/02:00am 25.1 21.7 5.8 29 10.0 E 13 19 7 10 1016.2 1015.8 0.0
24/01:30am 23.9 20.4 5.3 30 9.5 E 13 19 7 10 1015.7 1015.3 0.0
24/01:00am 23.1 19.9 5.1 31 9.1 NNE 11 13 6 7 1015.1 1014.7 0.0
24/12:30am 24.6 20.3 5.4 29 9.8 NNE 17 20 9 11 1015.3 1014.9 0.0
24/12:00am 24.8 20.6 5.6 29 9.9 N 17 20 9 11 1015.3 1014.9 0.0
 
Date/Time
EDT
Temp
°C
App
Temp
°C
Dew
Point
Rel
Hum
%
Delta-T
°C
Wind Press
QNH
hPa
Press
MSL
hPa
Rain
since 9 am
mm
Dir
 
Spd
km/h
Gust
km/h
Spd
kts
Gust
kts
23/11:30pm 25.8 21.0 5.4 27 10.5 N 20 24 11 13 1015.3 1014.9 0.0
23/11:00pm 26.8 21.1 5.1 25 11.2 N 24 32 13 17 1015.2 1014.8 0.0
23/10:30pm 26.8 22.1 5.1 25 11.2 N 19 24 10 13 1015.2 1014.8 0.0
23/10:00pm 26.8 22.1 5.1 25 11.2 NNE 19 22 10 12 1015.1 1014.7 0.0
23/09:30pm 26.1 21.6 6.2 28 10.4 NNE 19 20 10 11 1015.1 1014.7 0.0
23/09:00pm 26.9 22.3 5.8 26 11.0 N 19 22 10 12 1014.9 1014.5 0.0
23/08:30pm 26.5 22.8 4.3 24 11.3 N 13 15 7 8 1014.6 1014.2 0.0
23/08:00pm 29.1 24.8 3.1 19 13.1 N 15 20 8 11 1014.3 1013.9 0.0
23/07:30pm 29.3 28.0 4.0 20 13.0 CALM 0 0 0 0 1014.1 1013.7 0.0
23/07:00pm 30.3 27.3 4.1 19 13.6 N 9 13 5 7 1013.8 1013.5 0.0
23/06:30pm 31.4 26.9 4.2 18 14.2 N 17 22 9 12 1013.6 1013.3 0.0
23/06:00pm 32.6 25.3 4.4 17 14.9 NW 32 39 17 21 1013.7 1013.4 0.0
23/05:50pm 33.2 26.6 4.0 16 15.3 NNW 28 44 15 24 1013.5 1013.2 0.0
23/05:30pm 33.5 30.0 3.3 15 15.7 NNE 11 17 6 9 1013.5 1013.2 0.0
23/05:00pm 33.3 29.4 3.2 15 15.6 N 13 19 7 10 1013.7 1013.4 0.0
23/04:30pm 33.0 29.0 2.9 15 15.5 N 13 22 7 12 1013.9 1013.6 0.0
23/04:00pm 34.3 31.5 1.9 13 16.6 N 6 22 3 12 1014.1 1013.7 0.0
23/03:30pm 34.3 30.0 3.0 14 16.3 N 15 24 8 13 1014.5 1014.1 0.0
23/03:00pm 33.7 29.3 2.5 14 16.0 NNW 15 22 8 12 1014.9 1014.5 0.0
23/02:30pm 33.7 29.8 3.5 15 15.8 N 13 22 7 12 1015.2 1014.8 0.0
23/02:00pm 33.8 30.7 3.6 15 15.8 N 9 20 5 11 1015.7 1015.3 0.0
23/01:30pm 32.7 30.0 3.6 16 15.2 ENE 7 15 4 8 1016.2 1015.8 0.0
23/01:00pm 32.7 29.4 4.5 17 14.9 NNE 11 19 6 10 1016.7 1016.3 0.0
23/12:30pm 31.5 28.2 6.5 21 13.6 NE 13 20 7 11 1017.2 1016.9 0.0
23/12:00pm 29.7 26.2 7.0 24 12.3 N 15 22 8 12 1017.8 1017.5 0.0
23/11:30am 28.6 25.7 8.3 28 11.2 NNE 13 15 7 8 1018.2 1017.9 0.0
23/11:00am 28.2 25.9 7.4 27 11.2 NNW 9 13 5 7 1018.6 1018.3 0.0
23/10:30am 28.4 26.0 7.1 26 11.5 NNW 9 17 5 9 1018.8 1018.5 0.0
23/10:00am 28.3 26.2 8.1 28 11.0 NNW 9 17 5 9 1018.7 1018.4 0.0
23/09:30am 26.6 24.5 8.1 31 10.0 NNW 9 19 5 10 1018.7 1018.4 0.0
23/09:00am 26.0 23.9 9.8 36 9.0 NNE 11 20 6 11 1018.5 1018.2 0.0
23/08:30am 23.0 21.3 11.1 47 6.7 NE 11 15 6 8 1018.5 1018.2 0.0
23/08:00am 20.1 17.4 10.5 54 5.2 NNE 15 19 8 10 1018.2 1017.9 0.0
23/07:30am 19.5 17.1 10.2 55 5.0 NNE 13 15 7 8 1018.3 1018.0 0.0
23/07:00am 18.8 17.4 9.6 55 4.9 ENE 7 11 4 6 1018.7 1018.4 0.0
23/06:30am 18.6 16.5 9.7 56 4.8 ESE 11 17 6 9 1018.3 1018.0 0.0
23/06:00am 18.9 16.8 9.7 55 4.9 SSE 11 13 6 7 1018.1 1017.8 0.0
23/05:30am 20.5 19.5 10.3 52 5.6 N 6 7 3 4 1017.3 1017.0 0.0
23/05:00am 20.7 19.7 10.2 51 5.7 N 6 9 3 5 1016.8 1016.4 0.0
23/04:30am 20.2 20.0 10.3 53 5.4 N 2 7 1 4 1016.6 1016.2 0.0
23/04:00am 20.6 19.3 10.1 51 5.7 N 7 9 4 5 1016.5 1016.1 0.0
23/03:30am 19.3 17.2 8.3 49 5.7 N 9 15 5 8 1016.8 1016.4 0.0
23/03:00am 19.4 19.0 8.4 49 5.8 CALM 0 0 0 0 1017.1 1016.8 0.0
23/02:30am 19.2 17.2 8.8 51 5.5 N 9 13 5 7 1017.4 1017.1 0.0
23/02:00am 17.0 15.6 8.7 58 4.3 N 6 9 3 5 1017.5 1017.2 0.0
23/01:30am 16.8 16.5 8.5 58 4.3 CALM 0 0 0 0 1017.0 1016.7 0.0
23/01:00am 18.3 16.1 8.0 51 5.3 N 9 9 5 5 1017.2 1016.9 0.0
23/12:30am 18.9 17.4 8.3 50 5.5 N 6 7 3 4 1017.2 1016.9 0.0
23/12:00am 21.8 21.0 8.3 42 7.1 N 2 7 1 4 1017.3 1017.0 0.0
 
Date/Time
EDT
Temp
°C
App
Temp
°C
Dew
Point
Rel
Hum
%
Delta-T
°C
Wind Press
QNH
hPa
Press
MSL
hPa
Rain
since 9 am
mm
Dir
 
Spd
km/h
Gust
km/h
Spd
kts
Gust
kts
22/11:30pm 21.4 21.1 8.7 44 6.8 CALM 0 0 0 0 1017.5 1017.2 0.0
22/11:00pm 21.8 18.9 8.3 42 7.1 N 13 17 7 9 1017.6 1017.3 0.0
22/10:30pm 22.3 21.0 7.7 39 7.7 WNW 4 11 2 6 1017.6 1017.3 0.0
22/10:00pm 24.5 23.8 8.5 36 8.6 WNW 2 9 1 5 1017.8 1017.5 0.0
22/09:30pm 24.7 23.1 8.2 35 8.9 WNW 6 9 3 5 1017.5 1017.2 0.0
22/09:00pm 26.6 22.3 7.1 29 10.4 NW 19 28 10 15 1017.5 1017.2 0.0
22/08:30pm 28.3 22.8 5.8 24 11.9 WNW 24 37 13 20 1017.1 1016.8 0.0
22/08:00pm 26.8 25.8 5.7 26 11.0 CALM 0 0 0 0 1016.3 1015.9 0.0
22/07:30pm 28.3 27.2 5.2 23 12.0 CALM 0 0 0 0 1016.2 1015.8 0.0
22/07:00pm 30.0 28.4 4.6 20 13.2 WNW 2 6 1 3 1015.9 1015.5 0.0
22/06:30pm 31.9 30.2 3.8 17 14.6 WNW 2 7 1 4 1015.7 1015.3 0.0
22/06:00pm 32.0 30.4 4.7 18 14.4 WNW 2 6 1 3 1015.9 1015.5 0.0
22/05:30pm 32.8 29.1 4.6 17 14.9 WNW 13 20 7 11 1016.1 1015.7 0.0
22/05:00pm 33.4 29.4 5.0 17 15.2 NW 15 24 8 13 1016.3 1015.9 0.0
22/04:30pm 33.1 29.1 4.8 17 15.1 N 15 24 8 13 1016.6 1016.2 0.0
22/04:00pm 33.2 28.6 5.7 18 14.8 NW 19 24 10 13 1016.9 1016.5 0.0
22/03:30pm 31.2 26.4 5.6 20 13.7 NNW 20 32 11 17 1017.6 1017.3 0.0
22/03:00pm 32.5 27.9 6.7 20 14.1 N 20 30 11 16 1018.1 1017.8 0.0
22/02:30pm 31.1 25.9 5.5 20 13.6 NNW 22 33 12 18 1018.7 1018.4 0.0
22/02:00pm 30.9 26.0 6.7 22 13.1 N 22 33 12 18 1019.2 1018.9 0.0
22/01:30pm 30.3 25.2 7.5 24 12.5 N 24 37 13 20 1019.8 1019.4 0.0
22/01:00pm 29.1 24.1 8.2 27 11.5 N 24 35 13 19 1020.5 1020.1 0.0
22/12:30pm 27.7 22.6 7.5 28 10.9 N 24 32 13 17 1021.3 1020.9 0.0
22/12:00pm 26.8 22.1 7.8 30 10.2 N 22 30 12 16 1021.8 1021.5 0.0
22/11:30am 26.4 21.9 8.4 32 9.8 NE 22 30 12 16 1022.3 1022.0 0.0
22/11:00am 24.9 20.3 8.0 34 9.0 N 22 32 12 17 1022.8 1022.5 0.0
22/10:30am 23.2 17.7 7.7 37 8.2 N 26 35 14 19 1023.4 1023.1 0.0
22/10:00am 23.0 18.8 8.3 39 7.8 NE 20 30 11 16 1023.6 1023.3 0.0
22/09:30am 21.2 16.8 7.4 41 7.2 NE 20 30 11 16 1023.8 1023.5 0.0
22/09:00am 19.1 14.2 6.9 45 6.2 NE 22 30 12 16 1023.8 1023.5 0.0
22/08:30am 18.8 14.4 7.3 47 5.9 ENE 20 28 11 15 1023.7 1023.4 0.0
22/08:00am 17.3 12.8 7.1 51 5.1 NE 20 28 11 15 1023.7 1023.4 0.0
22/07:30am 16.1 12.7 7.6 57 4.3 NE 15 22 8 12 1023.7 1023.4 0.0
22/07:00am 13.9 11.7 7.9 67 3.0 NE 9 13 5 7 1023.8 1023.5 0.0
22/06:30am 13.1 11.1 7.1 67 2.9 NE 7 11 4 6 1023.4 1023.1 0.0
22/06:00am 14.1 11.1 7.6 65 3.2 NE 13 17 7 9 1023.0 1022.7 0.0
22/05:30am 14.7 10.9 7.7 63 3.5 NE 17 22 9 12 1022.6 1022.3 0.0
22/05:00am 15.0 10.9 8.0 63 3.5 NE 19 26 10 14 1022.6 1022.3 0.0
22/04:30am 15.2 11.0 8.2 63 3.6 ENE 20 26 11 14 1022.4 1022.1 0.0
22/04:00am 15.3 12.4 8.3 63 3.6 NE 13 20 7 11 1022.7 1022.4 0.0
22/03:30am 15.8 11.8 8.3 61 3.8 ENE 19 24 10 13 1022.8 1022.5 0.0
22/03:00am 16.0 13.2 8.5 61 3.8 ENE 13 20 7 11 1023.0 1022.7 0.0
22/02:30am 16.5 13.6 8.2 58 4.3 NE 13 20 7 11 1023.3 1023.0 0.0
22/02:00am 16.9 13.7 8.3 57 4.4 NE 15 20 8 11 1023.4 1023.1 0.0
22/01:30am 17.6 13.5 8.5 55 4.7 ENE 20 26 11 14 1023.4 1023.1 0.0
22/01:00am 18.6 14.5 8.6 52 5.2 NE 20 28 11 15 1023.7 1023.4 0.0
22/12:30am 19.4 13.7 8.4 49 5.8 NE 28 39 15 21 1023.8 1023.5 0.0
22/12:00am 20.2 15.7 8.5 47 6.1 NE 22 30 12 16 1024.0 1023.7 0.0
 
Date/Time
EDT
Temp
°C
App
Temp
°C
Dew
Point
Rel
Hum
%
Delta-T
°C
Wind Press
QNH
hPa
Press
MSL
hPa
Rain
since 9 am
mm
Dir
 
Spd
km/h
Gust
km/h
Spd
kts
Gust
kts
21/11:30pm 21.2 17.0 8.1 43 6.9 NE 20 33 11 18 1024.0 1023.7 0.0
21/11:00pm 21.9 17.7 8.1 41 7.3 NE 20 28 11 15 1023.8 1023.5 0.0
21/10:30pm 22.3 18.1 8.1 40 7.5 NE 20 28 11 15 1023.8 1023.5 0.0
21/10:00pm 23.2 19.0 8.1 38 8.0 NE 20 28 11 15 1023.6 1023.3 0.0
21/09:30pm 23.5 19.4 8.0 37 8.3 ENE 19 26 10 14 1023.4 1023.1 0.0
21/09:00pm 23.9 20.2 7.9 36 8.5 ENE 17 26 9 14 1023.1 1022.8 0.0
21/08:30pm 24.4 21.0 7.5 34 9.0 ENE 15 20 8 11 1023.0 1022.7 0.0

Other Formats:

Comma delimited format used in spreadsheet applications
http://www.bom.gov.au/fwo/IDN60801/IDN60801.95708.axf

JavaScript Object Notation format (JSON) in row-major order
http://www.bom.gov.au/fwo/IDN60801/IDN60801.95708.json